createdAt,value
2022-08-19T00:00:59.979Z,97656.53
2022-08-19T00:03:03.029Z,97647.91
2022-08-19T00:05:07.044Z,97649.94
2022-08-19T00:07:10.290Z,97644.78
2022-08-19T00:09:17.395Z,97652.78
2022-08-19T00:11:25.258Z,97650.31
2022-08-19T00:13:30.138Z,97653.81
2022-08-19T00:15:33.307Z,97658.09
2022-08-19T00:17:36.338Z,97653.81
2022-08-19T00:19:45.255Z,97654.00
2022-08-19T00:21:48.634Z,97665.47
2022-08-19T00:23:51.708Z,97672.63
2022-08-19T00:25:56.274Z,97677.13
2022-08-19T00:27:59.886Z,97677.13
2022-08-19T00:30:04.358Z,97663.00
2022-08-19T00:32:07.633Z,97650.88
2022-08-19T00:34:14.141Z,97656.22
2022-08-19T00:36:17.164Z,97664.78
2022-08-19T00:38:29.610Z,97663.13
2022-08-19T00:40:40.579Z,97659.84
2022-08-19T00:42:45.983Z,97651.19
2022-08-19T00:44:50.108Z,97641.78
2022-08-19T00:46:58.382Z,97638.84
2022-08-19T00:49:03.222Z,97635.56
2022-08-19T00:51:07.169Z,97635.75
2022-08-19T00:53:10.338Z,97642.06
2022-08-19T00:55:19.604Z,97652.72
2022-08-19T00:57:29.818Z,97648.81
2022-08-19T00:59:58.830Z,97652.66
2022-08-19T01:01:58.744Z,97652.03
2022-08-19T01:04:01.822Z,97657.53
2022-08-19T01:06:05.068Z,97658.38
2022-08-19T01:08:08.412Z,97667.34
2022-08-19T01:10:20.004Z,97666.34
2022-08-19T01:12:23.253Z,97663.50
2022-08-19T01:14:26.828Z,97664.31
2022-08-19T01:16:32.282Z,97670.28
2022-08-19T01:18:38.838Z,97664.97
2022-08-19T01:20:42.638Z,97666.59
2022-08-19T01:22:49.394Z,97666.59
2022-08-19T01:24:52.856Z,97662.09
2022-08-19T01:26:58.943Z,97652.28
2022-08-19T01:29:02.642Z,97655.13
2022-08-19T01:31:09.353Z,97655.13
2022-08-19T01:33:12.629Z,97653.28
2022-08-19T01:35:18.717Z,97647.34
2022-08-19T01:37:24.986Z,97651.38
2022-08-19T01:39:31.720Z,97654.44
2022-08-19T01:41:34.965Z,97648.47
2022-08-19T01:43:38.513Z,97646.81
2022-08-19T01:46:01.568Z,97650.72
2022-08-19T01:48:05.590Z,97649.25
2022-08-19T01:50:11.738Z,97651.28
2022-08-19T01:52:14.756Z,97657.59
2022-08-19T01:54:23.074Z,97650.66
2022-08-19T01:56:32.238Z,97653.31
2022-08-19T01:58:40.369Z,97644.47
2022-08-19T02:00:43.474Z,97642.66
2022-08-19T02:02:46.789Z,97641.19
2022-08-19T02:04:49.900Z,97644.06
2022-08-19T02:06:53.046Z,97648.75
2022-08-19T02:08:57.608Z,97650.94
2022-08-19T02:11:01.190Z,97661.94
2022-08-19T02:13:05.628Z,97657.19
2022-08-19T02:15:09.294Z,97656.75
2022-08-19T02:17:12.356Z,97654.28
2022-08-19T02:19:16.068Z,97651.81
2022-08-19T02:21:20.717Z,97653.00
2022-08-19T02:25:26.573Z,97669.97
2022-08-19T02:27:29.924Z,97670.53
2022-08-19T02:29:35.296Z,97665.75
2022-08-19T02:31:38.377Z,97671.44
2022-08-19T02:33:41.403Z,97670.81
2022-08-19T02:35:44.824Z,97680.59
2022-08-19T02:38:05.542Z,97674.47
2022-08-19T02:40:12.417Z,97676.94
2022-08-19T02:42:15.904Z,97672.44
2022-08-19T02:44:29.283Z,97672.91
2022-08-19T02:46:36.703Z,97671.88
2022-08-19T02:48:39.860Z,97664.78
2022-08-19T02:50:53.183Z,97671.72
2022-08-19T02:52:56.786Z,97668.41
2022-08-19T02:55:00.055Z,97658.53
2022-08-19T02:57:03.035Z,97669.91
2022-08-19T02:59:12.483Z,97666.63
2022-08-19T03:01:22.639Z,97655.31
2022-08-19T03:03:27.660Z,97654.69
2022-08-19T03:05:55.751Z,97657.53
2022-08-19T03:07:54.047Z,97651.41
2022-08-19T03:09:57.131Z,97652.59
2022-08-19T03:12:00.436Z,97654.81
2022-08-19T03:14:04.838Z,97657.84
2022-08-19T03:16:08.033Z,97662.66
2022-08-19T03:18:11.106Z,97669.19
2022-08-19T03:20:17.593Z,97664.25
2022-08-19T03:22:20.523Z,97674.06
2022-08-19T03:24:24.143Z,97668.94
2022-08-19T03:26:27.373Z,97665.25
2022-08-19T03:28:30.582Z,97662.59
2022-08-19T03:30:33.660Z,97663.22
2022-08-19T03:32:36.684Z,97677.16
2022-08-19T03:34:48.399Z,97669.19
2022-08-19T03:36:52.814Z,97676.13
2022-08-19T03:38:59.720Z,97676.31
2022-08-19T03:41:08.824Z,97673.84
2022-08-19T03:43:11.813Z,97671.19
2022-08-19T03:45:14.939Z,97669.19
2022-08-19T03:47:18.187Z,97673.28
2022-08-19T03:49:27.076Z,97672.94
2022-08-19T03:51:33.601Z,97675.41
2022-08-19T03:53:38.027Z,97668.09
2022-08-19T03:55:42.672Z,97668.91
2022-08-19T03:57:46.734Z,97661.75
2022-08-19T03:59:49.890Z,97663.41
2022-08-19T04:01:53.507Z,97666.06
2022-08-19T04:03:57.855Z,97669.16
2022-08-19T04:06:00.885Z,97671.81
2022-08-19T04:08:04.339Z,97676.94
2022-08-19T04:10:10.598Z,97674.09
2022-08-19T04:12:13.894Z,97680.44
2022-08-19T04:14:23.956Z,97673.28
2022-08-19T04:16:35.188Z,97677.59
2022-08-19T04:18:40.103Z,97667.78
2022-08-19T04:20:45.345Z,97671.44
2022-08-19T04:22:48.477Z,97668.59
2022-08-19T04:24:51.511Z,97677.44
2022-08-19T04:26:56.097Z,97678.22
2022-08-19T04:28:59.121Z,97673.91
2022-08-19T04:31:02.213Z,97676.56
2022-08-19T04:33:05.519Z,97683.72
2022-08-19T04:35:17.444Z,97673.09
2022-08-19T04:37:22.806Z,97668.59
2022-08-19T04:39:48.170Z,97673.91
2022-08-19T04:42:10.953Z,97675.13
2022-08-19T04:44:19.039Z,97666.50
2022-08-19T04:46:39.365Z,97673.03
2022-08-19T04:48:44.586Z,97672.38
2022-08-19T04:50:58.485Z,97661.13
2022-08-19T04:53:01.720Z,97663.59
2022-08-19T04:55:07.494Z,97669.72
2022-08-19T04:57:11.539Z,97665.25
2022-08-19T04:59:16.925Z,97674.03
2022-08-19T05:01:22.060Z,97675.69
2022-08-19T05:03:28.775Z,97673.03
2022-08-19T05:05:44.677Z,97679.97
2022-08-19T05:07:48.558Z,97685.28
2022-08-19T05:09:57.841Z,97693.91
2022-08-19T05:12:02.626Z,97691.81
2022-08-19T05:14:05.968Z,97689.72
2022-08-19T05:16:12.025Z,97689.91
2022-08-19T05:18:32.511Z,97704.16
2022-08-19T05:20:53.089Z,97709.31
2022-08-19T05:22:56.243Z,97712.13
2022-08-19T05:25:12.151Z,97724.59
2022-08-19T05:27:15.979Z,97732.75
2022-08-19T05:29:21.125Z,97732.56
2022-08-19T05:31:26.816Z,97741.34
2022-08-19T05:33:29.839Z,97751.00
2022-08-19T05:35:34.764Z,97751.81
2022-08-19T05:37:37.951Z,97757.94
2022-08-19T05:39:41.350Z,97762.25
2022-08-19T05:41:44.829Z,97766.38
2022-08-19T05:43:49.282Z,97765.53
2022-08-19T05:45:52.642Z,97766.38
2022-08-19T05:47:57.117Z,97777.63
2022-08-19T05:50:00.196Z,97774.81
2022-08-19T05:52:05.378Z,97782.59
2022-08-19T05:54:09.609Z,97785.88
2022-08-19T05:56:15.664Z,97780.38
2022-08-19T05:58:18.744Z,97786.53
2022-08-19T06:00:31.567Z,97782.69
2022-08-19T06:02:34.610Z,97783.53
2022-08-19T06:04:40.365Z,97794.16
2022-08-19T06:06:43.467Z,97792.50
2022-08-19T06:08:51.650Z,97794.16
2022-08-19T06:10:54.700Z,97792.13
2022-08-19T06:12:57.673Z,97785.16
2022-08-19T06:15:02.112Z,97787.81
2022-08-19T06:17:07.221Z,97792.13
2022-08-19T06:19:13.634Z,97791.31
2022-08-19T06:21:18.000Z,97781.50
2022-08-19T06:23:21.220Z,97782.13
2022-08-19T06:25:30.470Z,97782.97
2022-08-19T06:27:34.452Z,97780.13
2022-08-19T06:29:37.690Z,97770.13
2022-08-19T06:31:43.503Z,97776.75
2022-08-19T06:33:47.521Z,97775.19
2022-08-19T06:35:53.199Z,97774.19
2022-08-19T06:37:57.965Z,97779.31
2022-08-19T06:40:01.312Z,97772.78
2022-08-19T06:42:07.952Z,97778.59
2022-08-19T06:44:14.682Z,97776.38
2022-08-19T06:46:19.733Z,97782.81
2022-08-19T06:48:22.870Z,97778.56
2022-08-19T06:50:29.358Z,97780.09
2022-08-19T06:52:34.118Z,97776.78
2022-08-19T06:54:55.814Z,97782.63
2022-08-19T06:57:02.875Z,97786.75
2022-08-19T06:59:07.730Z,97791.03
2022-08-19T07:01:11.250Z,97799.50
2022-08-19T07:03:14.575Z,97808.28
2022-08-19T07:05:18.205Z,97800.13
2022-08-19T07:07:23.359Z,97791.97
2022-08-19T07:09:26.395Z,97795.63
2022-08-19T07:11:31.868Z,97803.41
2022-08-19T07:13:38.018Z,97802.59
2022-08-19T07:15:41.364Z,97798.66
2022-08-19T07:17:44.437Z,97797.03
2022-08-19T07:19:48.030Z,97796.56
2022-08-19T07:21:53.695Z,97799.22
2022-08-19T07:23:57.392Z,97806.19
2022-08-19T07:26:00.516Z,97809.66
2022-08-19T07:28:05.352Z,97804.16
2022-08-19T07:30:11.635Z,97807.66
2022-08-19T07:32:15.377Z,97807.00
2022-08-19T07:34:19.507Z,97812.50
2022-08-19T07:36:25.320Z,97806.38
2022-08-19T07:38:29.325Z,97806.56
2022-08-19T07:40:32.927Z,97807.56
2022-08-19T07:42:36.487Z,97809.41
2022-08-19T07:46:53.220Z,97806.94
2022-08-19T07:48:56.434Z,97799.78
2022-08-19T07:51:02.743Z,97806.13
2022-08-19T07:53:05.731Z,97796.31
2022-08-19T07:55:40.228Z,97803.28
2022-08-19T07:57:33.105Z,97803.28
2022-08-19T07:59:36.166Z,97805.47
2022-08-19T08:01:41.855Z,97804.03
2022-08-19T08:04:07.991Z,97808.50
2022-08-19T08:06:29.460Z,97808.06
2022-08-19T08:08:51.073Z,97810.72
2022-08-19T08:10:57.124Z,97811.53
2022-08-19T08:13:09.209Z,97818.69
2022-08-19T08:15:17.348Z,97818.69
2022-08-19T08:17:31.188Z,97824.00
2022-08-19T08:19:51.864Z,97821.34
2022-08-19T08:21:59.063Z,97823.56
2022-08-19T08:26:09.241Z,97828.72
2022-08-19T08:28:17.606Z,97831.56
2022-08-19T08:30:23.583Z,97827.41
2022-08-19T08:32:28.592Z,97825.59
2022-08-19T08:34:31.839Z,97821.09
2022-08-19T08:36:35.303Z,97814.13
2022-08-19T08:38:40.267Z,97813.94
2022-08-19T08:40:49.505Z,97817.41
2022-08-19T08:45:15.875Z,97811.81
2022-08-19T08:47:21.221Z,97811.25
2022-08-19T08:49:36.212Z,97819.50
2022-08-19T08:53:51.694Z,97821.41
2022-08-19T08:55:59.280Z,97824.50
2022-08-19T08:58:05.549Z,97829.66
2022-08-19T09:00:15.561Z,97825.66
2022-08-19T09:02:19.209Z,97824.66
2022-08-19T09:04:23.822Z,97825.28
2022-08-19T09:06:33.589Z,97821.19
2022-08-19T09:08:44.241Z,97823.13
2022-08-19T09:10:54.987Z,97825.41
2022-08-19T09:13:09.152Z,97826.50
2022-08-19T09:15:15.004Z,97829.59
2022-08-19T09:17:20.325Z,97835.56
2022-08-19T09:19:23.711Z,97835.38
2022-08-19T09:21:33.223Z,97837.84
2022-08-19T09:23:36.590Z,97838.47
2022-08-19T09:25:41.108Z,97844.00
2022-08-19T09:27:46.421Z,97841.53
2022-08-19T09:29:49.931Z,97843.56
2022-08-19T09:31:53.361Z,97840.72
2022-08-19T09:33:58.176Z,97846.03
2022-08-19T09:36:08.447Z,97839.03
2022-08-19T09:38:13.165Z,97853.34
2022-08-19T09:40:16.348Z,97849.88
2022-08-19T09:42:29.882Z,97850.06
2022-08-19T09:44:34.701Z,97844.94
2022-08-19T09:46:37.803Z,97841.66
2022-08-19T09:48:41.764Z,97846.13
2022-08-19T09:50:51.494Z,97852.47
2022-08-19T09:52:57.554Z,97862.28
2022-08-19T09:55:07.465Z,97857.72
2022-08-19T09:57:11.426Z,97855.44
2022-08-19T09:59:14.500Z,97843.34
2022-08-19T10:01:20.353Z,97842.50
2022-08-19T10:03:25.431Z,97853.13
2022-08-19T10:05:55.164Z,97857.28
2022-08-19T10:07:58.646Z,97852.38
2022-08-19T10:10:03.091Z,97849.53
2022-08-19T10:12:06.778Z,97853.22
2022-08-19T10:14:14.660Z,97843.41
2022-08-19T10:16:20.920Z,97848.72
2022-08-19T10:18:25.415Z,97847.72
2022-08-19T10:20:31.064Z,97837.69
2022-08-19T10:22:36.649Z,97847.34
2022-08-19T10:24:39.738Z,97843.66
2022-08-19T10:26:49.046Z,97845.13
2022-08-19T10:29:00.581Z,97850.44
2022-08-19T10:31:07.330Z,97836.50
2022-08-19T10:33:11.315Z,97837.88
2022-08-19T10:35:16.214Z,97837.44
2022-08-19T10:37:31.220Z,97839.47
2022-08-19T10:39:43.297Z,97833.50
2022-08-19T10:41:48.243Z,97836.78
2022-08-19T10:43:55.435Z,97842.97
2022-08-19T10:46:00.259Z,97835.78
2022-08-19T10:48:03.407Z,97836.78
2022-08-19T10:50:28.687Z,97836.97
2022-08-19T10:52:38.783Z,97832.25
2022-08-19T10:54:59.865Z,97837.28
2022-08-19T10:57:09.898Z,97847.28
2022-08-19T10:59:15.056Z,97838.66
2022-08-19T11:01:18.248Z,97840.84
2022-08-19T11:03:21.555Z,97835.72
2022-08-19T11:05:24.731Z,97839.78
2022-08-19T11:07:27.714Z,97841.59
2022-08-19T11:09:34.404Z,97841.78
2022-08-19T11:11:41.621Z,97837.31
2022-08-19T11:13:47.433Z,97834.66
2022-08-19T11:15:58.512Z,97839.78
2022-08-19T11:18:01.608Z,97838.75
2022-08-19T11:20:06.693Z,97828.78
2022-08-19T11:22:11.349Z,97828.78
2022-08-19T11:24:22.306Z,97817.94
2022-08-19T11:26:25.768Z,97827.34
2022-08-19T11:28:29.441Z,97825.34
2022-08-19T11:30:34.222Z,97827.84
2022-08-19T11:32:37.313Z,97830.50
2022-08-19T11:34:40.625Z,97834.78
2022-08-19T11:36:45.816Z,97836.63
2022-08-19T11:38:49.866Z,97827.84
2022-08-19T11:40:59.747Z,97831.16
2022-08-19T11:43:02.773Z,97831.97
2022-08-19T11:45:06.229Z,97825.66
2022-08-19T11:47:10.620Z,97832.63
2022-08-19T11:49:14.320Z,97839.56
2022-08-19T11:51:20.756Z,97834.25
2022-08-19T11:53:24.486Z,97833.44
2022-08-19T11:55:27.566Z,97837.56
2022-08-19T11:57:30.829Z,97834.69
2022-08-19T11:59:33.979Z,97838.00
2022-08-19T12:01:37.073Z,97838.81
2022-08-19T12:03:41.729Z,97835.97
2022-08-19T12:05:44.825Z,97837.81
2022-08-19T12:07:48.035Z,97834.13
2022-08-19T12:09:51.233Z,97842.13
2022-08-19T12:11:55.261Z,97839.47
2022-08-19T12:13:58.366Z,97834.13
2022-08-19T12:16:01.505Z,97841.94
2022-08-19T12:18:04.889Z,97833.31
2022-08-19T12:20:11.801Z,97830.66
2022-08-19T12:22:15.085Z,97836.78
2022-08-19T12:24:21.462Z,97832.13
2022-08-19T12:26:25.395Z,97830.28
2022-08-19T12:28:28.610Z,97838.88
2022-08-19T12:30:31.750Z,97829.72
2022-08-19T12:32:35.287Z,97837.94
2022-08-19T12:34:38.907Z,97834.91
2022-08-19T12:36:43.380Z,97830.25
2022-08-19T12:38:47.706Z,97837.00
2022-08-19T12:40:55.100Z,97832.53
2022-08-19T12:43:00.587Z,97833.34
2022-08-19T12:45:03.628Z,97840.72
2022-08-19T12:47:10.334Z,97837.00
2022-08-19T12:49:27.372Z,97833.72
2022-08-19T12:51:36.868Z,97837.56
2022-08-19T12:53:41.879Z,97839.25
2022-08-19T12:55:45.068Z,97839.88
2022-08-19T12:57:49.441Z,97843.38
2022-08-19T12:59:55.472Z,97840.06
2022-08-19T13:01:58.734Z,97840.72
2022-08-19T13:04:01.822Z,97841.09
2022-08-19T13:06:05.121Z,97835.56
2022-08-19T13:08:08.235Z,97839.88
2022-08-19T13:10:16.336Z,97843.38
2022-08-19T13:12:19.468Z,97841.53
2022-08-19T13:14:28.025Z,97850.97
2022-08-19T13:16:31.127Z,97853.44
2022-08-19T13:18:34.271Z,97853.06
2022-08-19T13:20:38.825Z,97850.03
2022-08-19T13:22:42.145Z,97848.63
2022-08-19T13:24:47.349Z,97845.59
2022-08-19T13:26:51.969Z,97843.16
2022-08-19T13:29:12.294Z,97842.41
2022-08-19T13:31:34.944Z,97848.00
2022-08-19T13:33:38.005Z,97842.91
2022-08-19T13:35:42.685Z,97841.19
2022-08-19T13:37:46.370Z,97839.97
2022-08-19T13:39:49.743Z,97842.44
2022-08-19T13:41:54.264Z,97846.38
2022-08-19T13:43:57.369Z,97846.59
2022-08-19T13:46:01.051Z,97847.88
2022-08-19T13:48:08.045Z,97854.03
2022-08-19T13:50:12.664Z,97846.59
2022-08-19T13:52:15.941Z,97841.09
2022-08-19T13:54:18.988Z,97850.94
2022-08-19T13:56:26.095Z,97856.88
2022-08-19T13:58:32.529Z,97846.66
2022-08-19T14:00:39.767Z,97844.63
2022-08-19T14:02:44.147Z,97844.88
2022-08-19T14:04:47.249Z,97845.69
2022-08-19T14:06:50.375Z,97848.94
2022-08-19T14:08:53.898Z,97840.75
2022-08-19T14:10:57.226Z,97841.78
2022-08-19T14:13:02.392Z,97843.41
2022-08-19T14:15:08.596Z,97844.44
2022-08-19T14:17:11.634Z,97843.16
2022-08-19T14:19:16.274Z,97839.88
2022-08-19T14:21:22.055Z,97841.72
2022-08-19T14:23:25.239Z,97845.03
2022-08-19T14:25:30.611Z,97849.13
2022-08-19T14:27:35.061Z,97850.41
2022-08-19T14:29:38.651Z,97857.38
2022-08-19T14:31:44.183Z,97845.69
2022-08-19T14:33:48.290Z,97845.50
2022-08-19T14:35:51.366Z,97843.03
2022-08-19T14:38:03.752Z,97835.47
2022-08-19T14:40:08.270Z,97831.59
2022-08-19T14:42:11.741Z,97834.91
2022-08-19T14:44:14.878Z,97836.06
2022-08-19T14:46:20.774Z,97829.06
2022-08-19T14:48:28.958Z,97829.88
2022-08-19T14:50:32.663Z,97838.53
2022-08-19T14:52:35.790Z,97838.34
2022-08-19T14:54:38.765Z,97839.34
2022-08-19T14:56:42.459Z,97842.63
2022-08-19T14:58:46.041Z,97839.16
2022-08-19T15:00:49.243Z,97846.72
2022-08-19T15:02:52.929Z,97846.06
2022-08-19T15:04:59.402Z,97849.31
2022-08-19T15:07:05.355Z,97844.94
2022-08-19T15:09:08.439Z,97852.91
2022-08-19T15:11:12.507Z,97852.84
2022-08-19T15:13:15.707Z,97855.22
2022-08-19T15:15:19.215Z,97852.06
2022-08-19T15:17:24.761Z,97858.13
2022-08-19T15:19:45.591Z,97863.59
2022-08-19T15:21:50.022Z,97851.84
2022-08-19T15:23:53.999Z,97856.13
2022-08-19T15:25:57.085Z,97861.16
2022-08-19T15:28:01.771Z,97860.09
2022-08-19T15:30:05.621Z,97861.47
2022-08-19T15:32:09.740Z,97871.88
2022-08-19T15:34:12.912Z,97881.41
2022-08-19T15:36:16.723Z,97880.97
2022-08-19T15:38:24.397Z,97882.53
2022-08-19T15:40:28.427Z,97891.88
2022-08-19T15:42:31.518Z,97887.13
2022-08-19T15:44:34.956Z,97886.38
2022-08-19T15:46:39.818Z,97888.41
2022-08-19T15:48:42.935Z,97883.44
2022-08-19T15:50:46.019Z,97879.13
2022-08-19T15:52:52.109Z,97884.44
2022-08-19T15:54:56.586Z,97889.13
2022-08-19T15:57:17.265Z,97883.81
2022-08-19T15:59:46.819Z,97886.47
2022-08-19T16:02:10.460Z,97878.50
2022-08-19T16:04:34.830Z,97875.84
2022-08-19T16:06:39.983Z,97862.72
2022-08-19T16:08:48.869Z,97862.91
2022-08-19T16:10:53.760Z,97868.22
2022-08-19T16:12:57.767Z,97866.56
2022-08-19T16:15:01.392Z,97864.72
2022-08-19T16:17:04.915Z,97865.75
2022-08-19T16:19:11.905Z,97869.22
2022-08-19T16:21:17.300Z,97871.25
2022-08-19T16:23:20.353Z,97871.44
2022-08-19T16:25:27.505Z,97886.19
2022-08-19T16:27:32.433Z,97871.88
2022-08-19T16:29:39.092Z,97877.22
2022-08-19T16:31:46.044Z,97869.22
2022-08-19T16:33:49.217Z,97878.22
2022-08-19T16:36:00.461Z,97870.22
2022-08-19T16:38:11.425Z,97883.34
2022-08-19T16:40:14.640Z,97881.53
2022-08-19T16:42:17.898Z,97889.13
2022-08-19T16:44:22.778Z,97888.66
2022-08-19T16:46:27.460Z,97898.31
2022-08-19T16:48:32.999Z,97891.97
2022-08-19T16:50:51.223Z,97896.09
2022-08-19T16:52:54.251Z,97896.09
2022-08-19T16:54:57.401Z,97894.91
2022-08-19T16:57:00.478Z,97895.91
2022-08-19T16:59:04.873Z,97895.72
2022-08-19T17:01:11.351Z,97890.88
2022-08-19T17:03:15.302Z,97894.81
2022-08-19T17:05:18.839Z,97897.28
2022-08-19T17:07:21.890Z,97897.75
2022-08-19T17:09:26.239Z,97899.56
2022-08-19T17:11:31.604Z,97899.75
2022-08-19T17:13:35.022Z,97897.28
2022-08-19T17:15:38.273Z,97900.78
2022-08-19T17:17:42.651Z,97902.59
2022-08-19T17:19:47.391Z,97895.84
2022-08-19T17:21:50.441Z,97907.09
2022-08-19T17:23:53.447Z,97900.97
2022-08-19T17:25:56.915Z,97903.63
2022-08-19T17:28:08.054Z,97900.78
2022-08-19T17:30:11.681Z,97905.25
2022-08-19T17:32:15.380Z,97903.63
2022-08-19T17:34:19.795Z,97906.91
2022-08-19T17:36:24.320Z,97910.59
2022-08-19T17:38:27.973Z,97908.75
2022-08-19T17:40:31.295Z,97900.78
2022-08-19T17:42:35.938Z,97901.41
2022-08-19T17:44:40.782Z,97912.06
2022-08-19T17:46:45.105Z,97913.06
2022-08-19T17:48:52.118Z,97906.91
2022-08-19T17:50:57.308Z,97909.75
2022-08-19T17:53:02.593Z,97907.28
2022-08-19T17:55:06.562Z,97915.28
2022-08-19T17:57:09.601Z,97918.94
2022-08-19T17:59:14.508Z,97911.97
2022-08-19T18:01:18.045Z,97916.63
2022-08-19T18:03:30.312Z,97911.50
2022-08-19T18:05:36.869Z,97913.34
2022-08-19T18:07:42.388Z,97916.19
2022-08-19T18:09:51.524Z,97915.38
2022-08-19T18:11:56.986Z,97920.88
2022-08-19T18:14:00.174Z,97920.22
2022-08-19T18:16:03.397Z,97917.75
2022-08-19T18:18:15.208Z,97931.41
2022-08-19T18:20:19.711Z,97928.28
2022-08-19T18:22:26.541Z,97923.53
2022-08-19T18:24:31.056Z,97928.56
2022-08-19T18:26:34.881Z,97920.31
2022-08-19T18:28:49.440Z,97927.00
2022-08-19T18:30:53.357Z,97930.38
2022-08-19T18:32:56.392Z,97923.75
2022-08-19T18:35:00.969Z,97926.97
2022-08-19T18:37:04.078Z,97930.16
2022-08-19T18:39:25.325Z,97930.88
2022-08-19T18:41:51.513Z,97928.94
2022-08-19T18:44:12.527Z,97929.84
2022-08-19T18:46:33.132Z,97929.72
2022-08-19T18:48:57.763Z,97940.88
2022-08-19T18:51:02.455Z,97934.09
2022-08-19T18:53:05.541Z,97933.44
2022-08-19T18:55:11.960Z,97939.09
2022-08-19T18:57:16.667Z,97936.81
2022-08-19T18:59:19.999Z,97933.50
2022-08-19T19:01:27.697Z,97937.53
2022-08-19T19:03:30.720Z,97937.72
2022-08-19T19:05:33.930Z,97933.75
2022-08-19T19:07:37.086Z,97950.22
2022-08-19T19:09:41.378Z,97945.44
2022-08-19T19:11:46.851Z,97946.59
2022-08-19T19:13:51.357Z,97955.59
2022-08-19T19:15:54.418Z,97958.41
2022-08-19T19:17:59.894Z,97960.22
2022-08-19T19:20:04.553Z,97959.59
2022-08-19T19:22:07.684Z,97958.78
2022-08-19T19:24:14.107Z,97955.28
2022-08-19T19:26:17.720Z,97965.06
2022-08-19T19:28:25.418Z,97967.72
2022-08-19T19:30:31.657Z,97969.56
2022-08-19T19:32:39.225Z,97973.38
2022-08-19T19:34:42.532Z,97974.56
2022-08-19T19:36:45.778Z,97974.91
2022-08-19T19:38:49.181Z,97976.88
2022-08-19T19:40:52.245Z,97980.56
2022-08-19T19:42:55.644Z,97977.22
2022-08-19T19:44:58.669Z,97985.19
2022-08-19T19:47:03.148Z,97977.22
2022-08-19T19:49:07.131Z,97978.88
2022-08-19T19:51:10.201Z,97986.22
2022-08-19T19:53:15.096Z,97987.19
2022-08-19T19:55:19.066Z,97980.75
2022-08-19T19:57:23.833Z,97974.97
2022-08-19T19:59:27.091Z,97978.97
2022-08-19T20:01:30.715Z,97982.63
2022-08-19T20:03:35.429Z,97985.75
2022-08-19T20:05:38.586Z,97991.72
2022-08-19T20:07:59.362Z,97994.38
2022-08-19T20:10:02.712Z,97992.56
2022-08-19T20:12:06.215Z,97997.88
2022-08-19T20:14:12.664Z,97996.19
2022-08-19T20:16:15.820Z,97998.84
2022-08-19T20:18:18.932Z,97996.53
2022-08-19T20:20:23.686Z,98000.19
2022-08-19T20:22:26.947Z,98000.19
2022-08-19T20:24:32.609Z,97996.53
2022-08-19T20:26:35.765Z,97993.25
2022-08-19T20:28:47.420Z,97997.88
2022-08-19T20:30:57.084Z,97996.59
2022-08-19T20:33:04.655Z,98000.88
2022-08-19T20:35:09.045Z,98003.53
2022-08-19T20:37:13.543Z,98006.84
2022-08-19T20:39:16.622Z,98006.84
2022-08-19T20:41:20.277Z,97999.88
2022-08-19T20:43:23.294Z,98000.88
2022-08-19T20:45:32.178Z,98005.53
2022-08-19T20:47:36.649Z,98011.00
2022-08-19T20:49:39.775Z,98005.72
2022-08-19T20:51:44.456Z,98008.19
2022-08-19T20:53:49.217Z,98001.38
2022-08-19T20:55:52.354Z,98002.25
2022-08-19T20:57:56.502Z,97998.75
2022-08-19T20:59:59.913Z,97999.41
2022-08-19T21:02:02.976Z,97995.91
2022-08-19T21:04:06.131Z,97986.31
2022-08-19T21:06:09.519Z,98002.88
2022-08-19T21:08:18.216Z,98003.69
2022-08-19T21:10:22.715Z,98009.69
2022-08-19T21:12:27.006Z,98011.69
2022-08-19T21:14:30.941Z,98012.50
2022-08-19T21:16:34.112Z,98012.50
2022-08-19T21:18:37.242Z,98015.34
2022-08-19T21:20:41.304Z,98010.22
2022-08-19T21:22:44.457Z,98008.41
2022-08-19T21:24:47.558Z,98004.91
2022-08-19T21:26:52.044Z,98007.56
2022-08-19T21:28:55.196Z,98008.56
2022-08-19T21:31:00.359Z,98004.25
2022-08-19T21:33:04.997Z,98001.59
2022-08-19T21:35:08.735Z,98009.09
2022-08-19T21:37:24.666Z,98010.59
2022-08-19T21:39:28.528Z,97997.50
2022-08-19T21:41:31.903Z,98002.44
2022-08-19T21:43:36.418Z,98005.44
2022-08-19T21:45:39.583Z,98018.88
2022-08-19T21:47:43.775Z,98011.25
2022-08-19T21:49:47.175Z,98012.09
2022-08-19T21:51:50.464Z,98018.09
2022-08-19T21:53:53.634Z,98015.28
2022-08-19T21:55:56.727Z,98019.38
2022-08-19T21:58:00.261Z,98020.25
2022-08-19T22:00:07.165Z,98021.88
2022-08-19T22:02:20.103Z,98022.56
2022-08-19T22:04:23.789Z,98024.53
2022-08-19T22:06:29.790Z,98024.34
2022-08-19T22:08:32.998Z,98028.84
2022-08-19T22:10:36.308Z,98025.19
2022-08-19T22:12:46.004Z,98020.25
2022-08-19T22:14:54.778Z,98016.91
2022-08-19T22:16:59.253Z,98007.97
2022-08-19T22:19:02.350Z,98015.75
2022-08-19T22:21:11.281Z,98016.56
2022-08-19T22:23:15.239Z,98027.84
2022-08-19T22:25:30.104Z,98018.22
2022-08-19T22:27:35.358Z,98016.56
2022-08-19T22:29:38.582Z,98020.41
2022-08-19T22:31:42.291Z,98017.94
2022-08-19T22:33:46.708Z,98022.72
2022-08-19T22:35:50.070Z,98024.72
2022-08-19T22:37:53.073Z,98023.06
2022-08-19T22:39:56.322Z,98023.22
2022-08-19T22:41:59.478Z,98031.00
2022-08-19T22:44:03.816Z,98023.06
2022-08-19T22:46:17.341Z,98030.19
2022-08-19T22:48:24.057Z,98036.47
2022-08-19T22:50:28.743Z,98025.22
2022-08-19T22:52:31.553Z,98027.88
2022-08-19T22:54:34.601Z,98031.34
2022-08-19T22:56:37.643Z,98026.22
2022-08-19T22:58:40.751Z,98034.34
2022-08-19T23:00:43.900Z,98027.91
2022-08-19T23:02:52.203Z,98013.97
2022-08-19T23:04:56.028Z,98017.13
2022-08-19T23:07:00.548Z,98032.19
2022-08-19T23:09:06.689Z,98024.56
2022-08-19T23:11:11.715Z,98030.19
2022-08-19T23:13:17.183Z,98030.53
2022-08-19T23:15:25.482Z,98032.53
2022-08-19T23:17:28.572Z,98031.03
2022-08-19T23:19:31.998Z,98034.00
2022-08-19T23:21:36.276Z,98033.53
2022-08-19T23:23:41.551Z,98041.66
2022-08-19T23:25:44.656Z,98036.50
2022-08-19T23:28:05.780Z,98031.53
2022-08-19T23:30:28.664Z,98031.88
2022-08-19T23:32:35.756Z,98033.19
2022-08-19T23:34:38.805Z,98039.84
2022-08-19T23:36:42.400Z,98038.50
2022-08-19T23:38:48.834Z,98039.69
2022-08-19T23:40:53.026Z,98039.00
2022-08-19T23:42:56.227Z,98041.81
2022-08-19T23:45:01.809Z,98044.47
2022-08-19T23:47:07.115Z,98039.31
2022-08-19T23:49:10.200Z,98048.13
2022-08-19T23:51:16.391Z,98045.63
2022-08-19T23:53:19.936Z,98045.13
2022-08-19T23:55:26.753Z,98041.97
2022-08-19T23:57:29.825Z,98045.13
2022-08-19T23:59:32.899Z,98037.50
